Time;durP1;ratioP1;P1;durP2;ratioP2;P2;SDS_P1;SDS_P2;PMS_P1;PMS_P2;Temp;Humidity;BMP_temperature;BMP_pressure;BME280_temperature;BME280_humidity;BME280_pressure;Samples;Min_cycle;Max_cycle;Signal;HPM_P1;HPM_P2
2023/12/24 00:00:16;;;;;;;6.40;4.35;;;;;;;;;;1030749;28;20022;-74
2023/12/24 00:00:46;;;;;;;3.22;2.28;;;;;;;;;;1030867;28;20100;-74
2023/12/24 00:01:17;;;;;;;10.52;4.60;;;;;;;;;;1031353;28;20057;-74
2023/12/24 00:01:47;;;;;;;6.90;2.38;;;;;;;;;;1031038;28;20490;-74
2023/12/24 00:02:17;;;;;;;1.52;1.42;;;;;;;;;;1031189;28;20026;-74
2023/12/24 00:02:48;;;;;;;0.82;0.82;;;;;;;;;;1031099;28;20018;-74
2023/12/24 00:03:18;;;;;;;4.80;2.95;;;;;;;;;;1030989;28;20027;-74
2023/12/24 00:03:49;;;;;;;0.90;0.90;;;;;;;;;;1035285;28;20029;-74
2023/12/24 00:04:19;;;;;;;3.92;2.03;;;;;;;;;;1034826;28;20085;-74
2023/12/24 00:04:50;;;;;;;4.40;2.00;;;;;;;;;;1035114;28;20025;-74
2023/12/24 00:05:20;;;;;;;5.03;3.05;;;;;;;;;;1030884;28;20112;-74
2023/12/24 00:05:50;;;;;;;0.77;0.77;;;;;;;;;;1030887;28;20030;-74
2023/12/24 00:06:21;;;;;;;4.32;1.75;;;;;;;;;;1030985;28;20049;-74
2023/12/24 00:06:51;;;;;;;4.05;3.72;;;;;;;;;;1031049;28;20026;-74
2023/12/24 00:07:22;;;;;;;5.95;4.22;;;;;;;;;;1031445;28;20030;-74
2023/12/24 00:07:52;;;;;;;4.38;2.63;;;;;;;;;;1031002;28;20577;-74
2023/12/24 00:08:23;;;;;;;2.50;2.30;;;;;;;;;;1031238;28;20442;-74
2023/12/24 00:08:53;;;;;;;2.30;2.08;;;;;;;;;;1031033;28;20410;-74
2023/12/24 00:09:23;;;;;;;4.68;4.00;;;;;;;;;;1027103;28;20467;-74
2023/12/24 00:09:54;;;;;;;8.20;1.48;;;;;;;;;;1031062;28;20057;-74
2023/12/24 00:10:24;;;;;;;3.47;2.55;;;;;;;;;;1031137;28;20034;-74
2023/12/24 00:10:56;;;;;;;5.03;1.80;;;;;;;;;;1026739;28;20038;-74
2023/12/24 00:11:26;;;;;;;6.57;3.90;;;;;;;;;;1031140;28;20030;-74
2023/12/24 00:11:57;;;;;;;11.27;4.40;;;;;;;;;;1031094;28;20394;-73
2023/12/24 00:12:27;;;;;;;3.38;3.03;;;;;;;;;;1031117;28;20026;-73
2023/12/24 00:12:57;;;;;;;8.27;3.17;;;;;;;;;;1030962;28;20070;-73
2023/12/24 00:13:28;;;;;;;11.43;3.78;;;;;;;;;;1031038;28;20367;-73
2023/12/24 00:13:58;;;;;;;3.28;3.05;;;;;;;;;;1027126;28;20022;-73
2023/12/24 00:14:29;;;;;;;4.78;4.28;;;;;;;;;;1026898;28;20089;-73
2023/12/24 00:15:00;;;;;;;3.70;3.35;;;;;;;;;;1030946;28;20030;-73
2023/12/24 00:15:30;;;;;;;2.72;2.38;;;;;;;;;;1030993;28;20457;-73
2023/12/24 00:16:01;;;;;;;3.95;3.65;;;;;;;;;;1027010;28;20019;-73
2023/12/24 00:16:31;;;;;;;4.43;4.10;;;;;;;;;;1031117;28;20030;-73
2023/12/24 00:17:02;;;;;;;5.60;3.55;;;;;;;;;;1031056;28;20057;-73
2023/12/24 00:17:32;;;;;;;4.32;2.33;;;;;;;;;;1026970;28;20033;-73
2023/12/24 00:18:03;;;;;;;6.43;2.85;;;;;;;;;;1031070;28;20410;-73
2023/12/24 00:18:33;;;;;;;3.25;3.05;;;;;;;;;;1030078;28;20030;-73
2023/12/24 00:19:03;;;;;;;17.92;3.03;;;;;;;;;;1031062;28;20065;-73
2023/12/24 00:19:34;;;;;;;7.82;3.75;;;;;;;;;;1030957;28;20033;-73
2023/12/24 00:20:05;;;;;;;3.92;3.60;;;;;;;;;;1030986;28;20529;-73
2023/12/24 00:20:36;;;;;;;2.95;2.72;;;;;;;;;;1029054;28;20022;-73
2023/12/24 00:21:06;;;;;;;4.90;4.43;;;;;;;;;;1026745;28;20030;-73
2023/12/24 00:21:37;;;;;;;1.85;1.73;;;;;;;;;;1031068;28;20068;-73
2023/12/24 00:22:07;;;;;;;7.63;3.92;;;;;;;;;;1031165;28;20022;-73
2023/12/24 00:22:38;;;;;;;6.45;4.00;;;;;;;;;;1031114;28;20614;-73
2023/12/24 00:23:09;;;;;;;5.55;4.60;;;;;;;;;;1030864;28;20073;-73
2023/12/24 00:23:39;;;;;;;4.28;2.60;;;;;;;;;;1031094;28;20118;-73
2023/12/24 00:24:10;;;;;;;3.20;1.77;;;;;;;;;;1031103;28;20150;-73
2023/12/24 00:24:41;;;;;;;4.95;4.53;;;;;;;;;;1031125;28;20030;-73
2023/12/24 00:25:12;;;;;;;3.42;2.90;;;;;;;;;;1031309;28;20034;-73
2023/12/24 00:25:42;;;;;;;1.60;1.50;;;;;;;;;;1031118;28;20014;-73
2023/12/24 00:26:12;;;;;;;3.70;3.38;;;;;;;;;;1028470;28;20054;-73
2023/12/24 00:26:43;;;;;;;17.98;4.25;;;;;;;;;;1031071;28;20026;-73
2023/12/24 00:27:13;;;;;;;3.92;2.28;;;;;;;;;;1031090;28;20080;-73
2023/12/24 00:27:44;;;;;;;2.88;2.55;;;;;;;;;;1031056;28;20141;-73
2023/12/24 00:28:14;;;;;;;4.43;3.35;;;;;;;;;;1031384;28;20068;-73
2023/12/24 00:28:45;;;;;;;3.25;2.28;;;;;;;;;;1031370;28;20069;-73
2023/12/24 00:29:15;;;;;;;5.07;3.70;;;;;;;;;;1031328;28;20018;-73
2023/12/24 00:29:45;;;;;;;5.32;3.88;;;;;;;;;;1031013;28;20015;-73
2023/12/24 00:30:16;;;;;;;4.78;2.63;;;;;;;;;;1026890;28;20517;-73
2023/12/24 00:30:46;;;;;;;8.65;4.45;;;;;;;;;;1026811;28;20475;-73
2023/12/24 00:31:17;;;;;;;4.75;2.15;;;;;;;;;;1026978;28;20035;-73
2023/12/24 00:31:47;;;;;;;24.48;3.80;;;;;;;;;;1031178;28;20030;-73
2023/12/24 00:32:19;;;;;;;2.40;2.20;;;;;;;;;;1031079;28;20018;-73
2023/12/24 00:32:50;;;;;;;2.17;2.08;;;;;;;;;;1026970;28;20027;-73
2023/12/24 00:33:20;;;;;;;10.98;5.95;;;;;;;;;;1028872;28;20026;-73
2023/12/24 00:33:51;;;;;;;5.20;4.75;;;;;;;;;;1024910;28;20019;-73
2023/12/24 00:34:21;;;;;;;4.22;2.28;;;;;;;;;;1027170;28;20050;-73
2023/12/24 00:34:52;;;;;;;2.97;2.75;;;;;;;;;;1031056;28;20117;-73
2023/12/24 00:35:22;;;;;;;4.55;4.18;;;;;;;;;;1031773;28;20026;-73
2023/12/24 00:35:53;;;;;;;7.63;3.95;;;;;;;;;;1031516;28;20036;-73
2023/12/24 00:36:23;;;;;;;6.00;3.95;;;;;;;;;;1031588;28;20026;-73
2023/12/24 00:36:54;;;;;;;4.40;4.00;;;;;;;;;;1031779;28;20125;-73
2023/12/24 00:37:24;;;;;;;3.13;2.92;;;;;;;;;;1027705;28;20034;-73
2023/12/24 00:37:56;;;;;;;2.15;1.95;;;;;;;;;;1031756;28;20027;-73
2023/12/24 00:38:26;;;;;;;6.05;2.25;;;;;;;;;;1031888;28;20042;-73
2023/12/24 00:38:57;;;;;;;4.50;2.78;;;;;;;;;;1031848;28;20422;-73
2023/12/24 00:39:27;;;;;;;3.38;2.17;;;;;;;;;;1032105;28;20494;-73
2023/12/24 00:39:57;;;;;;;10.32;4.35;;;;;;;;;;1032111;28;20542;-73
2023/12/24 00:40:28;;;;;;;2.67;2.15;;;;;;;;;;1032050;28;20441;-73
2023/12/24 00:40:58;;;;;;;1.92;1.55;;;;;;;;;;1031962;28;20483;-73
2023/12/24 00:41:30;;;;;;;1.17;1.08;;;;;;;;;;1030327;28;20019;-73
2023/12/24 00:42:00;;;;;;;1.13;1.10;;;;;;;;;;1031241;28;20022;-73
2023/12/24 00:42:31;;;;;;;6.43;3.60;;;;;;;;;;1031800;28;20050;-73
2023/12/24 00:43:01;;;;;;;2.03;1.90;;;;;;;;;;1031790;28;20390;-73
2023/12/24 00:43:32;;;;;;;4.32;4.03;;;;;;;;;;1031626;28;20018;-73
2023/12/24 00:44:03;;;;;;;1.73;1.63;;;;;;;;;;1031843;28;20033;-73
2023/12/24 00:44:33;;;;;;;1.38;1.27;;;;;;;;;;1031832;28;20025;-73
2023/12/24 00:45:04;;;;;;;8.43;2.92;;;;;;;;;;1027688;28;20054;-73
2023/12/24 00:45:35;;;;;;;2.13;1.95;;;;;;;;;;1031576;28;20533;-73
2023/12/24 00:46:06;;;;;;;2.78;2.25;;;;;;;;;;1031620;28;20022;-73
2023/12/24 00:46:36;;;;;;;1.88;1.77;;;;;;;;;;1031834;28;20265;-73
2023/12/24 00:47:07;;;;;;;3.13;2.90;;;;;;;;;;1032011;28;20431;-73
2023/12/24 00:47:37;;;;;;;5.35;3.25;;;;;;;;;;1031617;28;20487;-73
2023/12/24 00:48:09;;;;;;;4.78;3.03;;;;;;;;;;1031856;28;20021;-73
2023/12/24 00:48:40;;;;;;;9.40;3.08;;;;;;;;;;1031039;28;20022;-73
2023/12/24 00:49:10;;;;;;;9.25;4.05;;;;;;;;;;1031352;28;20034;-73
2023/12/24 00:49:41;;;;;;;16.08;5.85;;;;;;;;;;1035155;28;20032;-73
2023/12/24 00:50:11;;;;;;;4.65;3.10;;;;;;;;;;1035720;28;20453;-73
2023/12/24 00:50:41;;;;;;;3.97;3.10;;;;;;;;;;1031467;28;20471;-73
2023/12/24 00:51:12;;;;;;;5.50;4.97;;;;;;;;;;1031549;28;20400;-73
2023/12/24 00:51:43;;;;;;;4.78;3.92;;;;;;;;;;1031787;28;20026;-73
2023/12/24 00:52:13;;;;;;;5.13;4.43;;;;;;;;;;1031713;28;20030;-73
2023/12/24 00:52:43;;;;;;;9.70;4.43;;;;;;;;;;1032068;28;20024;-73
2023/12/24 00:53:14;;;;;;;3.50;2.03;;;;;;;;;;1031464;28;20025;-73
2023/12/24 00:53:44;;;;;;;3.85;2.33;;;;;;;;;;1031679;28;20104;-73
2023/12/24 00:54:15;;;;;;;6.78;2.70;;;;;;;;;;1031748;28;20027;-73
2023/12/24 00:54:45;;;;;;;2.78;2.60;;;;;;;;;;1027560;28;20029;-74
2023/12/24 00:55:16;;;;;;;2.97;2.72;;;;;;;;;;1027579;28;20018;-74
2023/12/24 00:55:46;;;;;;;10.48;4.97;;;;;;;;;;1031461;28;20022;-74
2023/12/24 00:56:16;;;;;;;12.95;5.60;;;;;;;;;;1031682;28;20165;-74
2023/12/24 00:56:47;;;;;;;32.53;10.60;;;;;;;;;;1031976;28;20046;-74
2023/12/24 00:57:17;;;;;;;49.15;18.60;;;;;;;;;;1031937;28;20116;-74
2023/12/24 00:57:48;;;;;;;53.47;20.60;;;;;;;;;;1032106;28;20014;-73
2023/12/24 00:58:18;;;;;;;45.63;19.08;;;;;;;;;;1031433;28;20037;-73
2023/12/24 00:58:48;;;;;;;9.40;7.70;;;;;;;;;;1031549;28;20024;-73
2023/12/24 00:59:19;;;;;;;39.80;12.18;;;;;;;;;;1031318;28;20041;-73
2023/12/24 00:59:49;;;;;;;20.95;10.35;;;;;;;;;;1031725;28;20018;-73
2023/12/24 01:00:20;;;;;;;7.40;5.72;;;;;;;;;;1031333;28;20026;-73
2023/12/24 01:00:50;;;;;;;7.38;5.68;;;;;;;;;;1031447;28;20033;-73
2023/12/24 01:01:21;;;;;;;7.95;3.53;;;;;;;;;;1031572;28;20030;-73
2023/12/24 01:01:51;;;;;;;11.70;4.32;;;;;;;;;;1031767;28;20085;-73
2023/12/24 01:02:22;;;;;;;7.13;3.45;;;;;;;;;;1031799;28;20085;-73
2023/12/24 01:02:52;;;;;;;11.02;4.78;;;;;;;;;;1027614;28;20027;-73
2023/12/24 01:03:23;;;;;;;8.65;6.28;;;;;;;;;;1031684;28;20034;-73
2023/12/24 01:03:53;;;;;;;3.20;2.75;;;;;;;;;;1031727;28;20515;-73
2023/12/24 01:04:24;;;;;;;7.47;4.55;;;;;;;;;;1031474;28;20026;-73
2023/12/24 01:04:54;;;;;;;8.55;5.93;;;;;;;;;;1035639;28;20018;-73
2023/12/24 01:05:24;;;;;;;2.67;2.47;;;;;;;;;;1035667;28;20120;-73
2023/12/24 01:05:55;;;;;;;5.85;4.75;;;;;;;;;;1035557;28;20060;-73
2023/12/24 01:06:25;;;;;;;4.63;3.65;;;;;;;;;;1031418;28;20034;-73
2023/12/24 01:06:57;;;;;;;7.28;3.13;;;;;;;;;;1031555;28;20025;-73
2023/12/24 01:07:27;;;;;;;5.57;3.38;;;;;;;;;;1031689;28;20026;-73
2023/12/24 01:07:57;;;;;;;3.72;3.40;;;;;;;;;;1027808;28;20022;-73
2023/12/24 01:08:28;;;;;;;15.43;4.45;;;;;;;;;;1031714;28;20037;-73
2023/12/24 01:08:58;;;;;;;10.80;6.55;;;;;;;;;;1031714;28;20018;-73
2023/12/24 01:09:29;;;;;;;4.78;3.95;;;;;;;;;;1031660;28;20446;-73
2023/12/24 01:09:59;;;;;;;12.88;3.63;;;;;;;;;;1030685;28;20478;-73
2023/12/24 01:10:29;;;;;;;4.45;2.60;;;;;;;;;;1026534;28;20141;-73
2023/12/24 01:11:00;;;;;;;23.02;5.72;;;;;;;;;;1027314;28;20058;-73
2023/12/24 01:11:30;;;;;;;5.07;4.38;;;;;;;;;;1023540;28;20023;-73
2023/12/24 01:12:01;;;;;;;2.72;2.53;;;;;;;;;;1027728;28;20031;-73
2023/12/24 01:12:32;;;;;;;5.25;3.35;;;;;;;;;;1031640;28;20414;-73
2023/12/24 01:13:03;;;;;;;7.55;2.38;;;;;;;;;;1031596;28;20034;-73
2023/12/24 01:13:33;;;;;;;9.63;5.57;;;;;;;;;;1031985;28;20383;-73
2023/12/24 01:14:03;;;;;;;5.55;5.15;;;;;;;;;;1032001;28;20058;-73
2023/12/24 01:14:34;;;;;;;3.58;2.08;;;;;;;;;;1031786;28;20426;-73
2023/12/24 01:15:05;;;;;;;9.50;2.53;;;;;;;;;;1031835;28;20125;-73
2023/12/24 01:15:35;;;;;;;2.95;2.50;;;;;;;;;;1035372;28;20025;-73
2023/12/24 01:16:06;;;;;;;7.15;4.53;;;;;;;;;;1035566;28;20018;-73
2023/12/24 01:16:40;;;;;;;1.58;1.52;;;;;;;;;;1031608;28;20037;-73
2023/12/24 01:17:11;;;;;;;3.15;1.67;;;;;;;;;;1031640;28;20100;-73
2023/12/24 01:17:41;;;;;;;3.58;3.13;;;;;;;;;;1031587;28;20076;-73
2023/12/24 01:18:12;;;;;;;6.07;4.32;;;;;;;;;;1031683;28;20068;-73
2023/12/24 01:18:43;;;;;;;5.35;2.75;;;;;;;;;;1031990;28;20025;-73
2023/12/24 01:19:13;;;;;;;5.55;2.53;;;;;;;;;;1031533;28;20054;-74
2023/12/24 01:19:44;;;;;;;6.38;4.45;;;;;;;;;;1031705;28;20533;-74
2023/12/24 01:20:15;;;;;;;2.58;2.38;;;;;;;;;;1030460;28;20053;-74
2023/12/24 01:20:45;;;;;;;2.47;1.40;;;;;;;;;;1031393;28;20194;-74
2023/12/24 01:21:16;;;;;;;3.75;3.05;;;;;;;;;;1031649;28;20110;-74
2023/12/24 01:21:46;;;;;;;3.67;3.40;;;;;;;;;;1031997;28;20027;-74
2023/12/24 01:22:17;;;;;;;3.22;2.05;;;;;;;;;;1031991;28;20542;-74
2023/12/24 01:22:47;;;;;;;1.13;1.10;;;;;;;;;;1031938;28;20030;-74
2023/12/24 01:23:18;;;;;;;1.55;1.45;;;;;;;;;;1031436;28;20597;-74
2023/12/24 01:23:48;;;;;;;7.00;4.93;;;;;;;;;;1031682;28;20026;-74
2023/12/24 01:24:19;;;;;;;3.92;2.60;;;;;;;;;;1031673;28;20120;-74
2023/12/24 01:24:49;;;;;;;4.43;3.20;;;;;;;;;;1031470;28;20430;-74
2023/12/24 01:25:20;;;;;;;4.95;2.92;;;;;;;;;;1035499;28;20030;-74
2023/12/24 01:25:50;;;;;;;2.00;1.90;;;;;;;;;;1034528;28;20401;-74
2023/12/24 01:26:21;;;;;;;1.92;1.73;;;;;;;;;;1034262;28;20060;-74
2023/12/24 01:26:51;;;;;;;2.33;2.08;;;;;;;;;;1031873;28;20026;-74
2023/12/24 01:27:22;;;;;;;2.33;1.42;;;;;;;;;;1031877;28;20474;-74
2023/12/24 01:27:53;;;;;;;0.85;0.68;;;;;;;;;;1031966;28;20054;-74
2023/12/24 01:28:23;;;;;;;2.03;1.40;;;;;;;;;;1032026;28;20018;-74
2023/12/24 01:28:54;;;;;;;1.45;1.35;;;;;;;;;;1031811;28;20057;-74
2023/12/24 01:29:24;;;;;;;2.20;1.95;;;;;;;;;;1031886;28;20524;-74
2023/12/24 01:29:55;;;;;;;7.03;2.47;;;;;;;;;;1031901;28;20058;-74
2023/12/24 01:30:26;;;;;;;1.15;1.13;;;;;;;;;;1031853;28;20022;-74
2023/12/24 01:30:56;;;;;;;15.15;2.83;;;;;;;;;;1031294;28;20029;-74
2023/12/24 01:31:27;;;;;;;2.90;2.33;;;;;;;;;;1031594;28;20029;-74
2023/12/24 01:31:57;;;;;;;3.47;2.00;;;;;;;;;;1031710;28;20106;-74
2023/12/24 01:32:28;;;;;;;1.20;1.15;;;;;;;;;;1027639;28;20019;-74
2023/12/24 01:32:58;;;;;;;2.90;2.70;;;;;;;;;;1031627;28;20026;-74
2023/12/24 01:33:29;;;;;;;3.13;2.78;;;;;;;;;;1031544;28;20033;-74
2023/12/24 01:33:59;;;;;;;2.22;0.88;;;;;;;;;;1027593;28;20038;-74
2023/12/24 01:34:29;;;;;;;1.55;1.45;;;;;;;;;;1031617;28;20026;-74
2023/12/24 01:35:00;;;;;;;3.08;2.75;;;;;;;;;;1027376;28;20430;-74
2023/12/24 01:35:30;;;;;;;3.70;1.33;;;;;;;;;;1027473;28;20848;-74
2023/12/24 01:36:01;;;;;;;2.17;1.33;;;;;;;;;;1029737;28;20041;-74
2023/12/24 01:36:31;;;;;;;2.28;2.13;;;;;;;;;;1031619;28;20082;-74
2023/12/24 01:37:02;;;;;;;2.00;1.38;;;;;;;;;;1031364;28;20026;-74
2023/12/24 01:37:32;;;;;;;7.63;4.43;;;;;;;;;;1031571;28;20398;-74
2023/12/24 01:38:03;;;;;;;1.50;1.42;;;;;;;;;;1031466;28;20109;-74
2023/12/24 01:38:33;;;;;;;0.22;0.22;;;;;;;;;;1031678;28;20076;-74
2023/12/24 01:39:03;;;;;;;1.85;1.75;;;;;;;;;;1031892;28;20033;-74
2023/12/24 01:39:34;;;;;;;5.68;2.85;;;;;;;;;;1031846;28;20117;-74
2023/12/24 01:40:05;;;;;;;2.45;2.25;;;;;;;;;;1031377;28;20022;-74
2023/12/24 01:40:35;;;;;;;3.53;2.45;;;;;;;;;;1030806;28;20109;-74
2023/12/24 01:41:05;;;;;;;1.83;1.67;;;;;;;;;;1031063;28;20814;-74
2023/12/24 01:41:36;;;;;;;2.65;2.33;;;;;;;;;;1031613;28;20028;-74
2023/12/24 01:42:06;;;;;;;2.65;1.20;;;;;;;;;;1031539;28;20026;-74
2023/12/24 01:42:37;;;;;;;1.58;1.48;;;;;;;;;;1031540;28;20026;-74
2023/12/24 01:43:07;;;;;;;3.72;2.08;;;;;;;;;;1029418;28;20019;-74
2023/12/24 01:43:44;;;;;;;18.67;2.15;;;;;;;;;;1029378;28;20112;-74
2023/12/24 01:44:14;;;;;;;3.35;1.52;;;;;;;;;;1031689;28;20572;-74
2023/12/24 01:44:45;;;;;;;0.63;0.63;;;;;;;;;;1031452;28;20061;-74
2023/12/24 01:45:15;;;;;;;1.10;1.10;;;;;;;;;;1031407;28;20421;-74
2023/12/24 01:45:46;;;;;;;11.13;1.95;;;;;;;;;;1031353;28;20041;-74
2023/12/24 01:46:21;;;;;;;3.35;3.03;;;;;;;;;;1030908;28;20117;-74
2023/12/24 01:46:51;;;;;;;3.72;2.50;;;;;;;;;;1030989;28;20096;-74
2023/12/24 01:47:22;;;;;;;5.30;4.90;;;;;;;;;;1031794;28;20018;-74
2023/12/24 01:47:52;;;;;;;4.65;2.15;;;;;;;;;;1031846;28;20455;-74
2023/12/24 01:48:24;;;;;;;1.98;1.52;;;;;;;;;;1030329;28;20113;-74
2023/12/24 01:48:55;;;;;;;0.47;0.47;;;;;;;;;;1030616;28;20038;-74
2023/12/24 01:49:26;;;;;;;3.58;1.00;;;;;;;;;;1026894;28;20027;-74
2023/12/24 01:49:56;;;;;;;17.45;5.30;;;;;;;;;;1026408;28;20839;-74
2023/12/24 01:50:27;;;;;;;5.38;4.85;;;;;;;;;;1031481;28;20511;-74
2023/12/24 01:51:00;;;;;;;2.63;2.40;;;;;;;;;;1027332;28;20443;-74
2023/12/24 01:51:31;;;;;;;1.73;1.63;;;;;;;;;;1031421;28;20089;-74
2023/12/24 01:52:02;;;;;;;7.35;4.82;;;;;;;;;;1030718;28;20018;-74
2023/12/24 01:52:32;;;;;;;2.13;1.90;;;;;;;;;;1031582;28;20014;-73
2023/12/24 01:53:04;;;;;;;5.72;4.13;;;;;;;;;;1031772;28;20018;-73
2023/12/24 01:53:34;;;;;;;6.38;2.22;;;;;;;;;;1030320;28;20023;-73
2023/12/24 01:54:05;;;;;;;4.13;2.17;;;;;;;;;;1035476;28;20026;-73
2023/12/24 01:54:35;;;;;;;3.38;3.10;;;;;;;;;;1035433;28;20576;-73
2023/12/24 01:55:06;;;;;;;2.08;1.95;;;;;;;;;;1035349;28;20080;-73
2023/12/24 01:55:37;;;;;;;2.95;2.67;;;;;;;;;;1035266;28;20268;-73
2023/12/24 01:56:08;;;;;;;1.90;1.80;;;;;;;;;;1031591;28;20030;-73
2023/12/24 01:56:39;;;;;;;3.15;2.92;;;;;;;;;;1031896;28;20084;-73
2023/12/24 01:57:10;;;;;;;3.55;3.25;;;;;;;;;;1031789;28;20033;-73
2023/12/24 01:57:40;;;;;;;0.95;0.95;;;;;;;;;;1031766;28;20029;-73
2023/12/24 01:58:11;;;;;;;1.25;1.15;;;;;;;;;;1031871;28;20073;-73
2023/12/24 01:58:41;;;;;;;1.77;1.67;;;;;;;;;;1031785;28;20030;-73
2023/12/24 01:59:12;;;;;;;2.75;2.50;;;;;;;;;;1031814;28;20047;-73
2023/12/24 01:59:43;;;;;;;4.18;3.78;;;;;;;;;;1031805;28;20022;-73
2023/12/24 02:00:13;;;;;;;3.80;3.42;;;;;;;;;;1035293;28;20053;-73
2023/12/24 02:00:45;;;;;;;3.50;3.00;;;;;;;;;;1035281;28;20029;-73
2023/12/24 02:01:16;;;;;;;4.28;2.55;;;;;;;;;;1034221;28;20478;-73
2023/12/24 02:01:46;;;;;;;2.05;1.92;;;;;;;;;;1034943;28;20041;-73
2023/12/24 02:02:17;;;;;;;5.32;3.60;;;;;;;;;;1031830;28;20125;-73
2023/12/24 02:02:48;;;;;;;3.08;2.67;;;;;;;;;;1031379;28;20018;-73
2023/12/24 02:03:19;;;;;;;12.10;3.10;;;;;;;;;;1031413;28;20478;-73
2023/12/24 02:03:49;;;;;;;3.85;3.47;;;;;;;;;;1031570;28;20022;-73
2023/12/24 02:04:20;;;;;;;7.03;3.10;;;;;;;;;;1030909;28;20152;-73
2023/12/24 02:04:50;;;;;;;3.53;3.30;;;;;;;;;;1031237;28;20025;-73
2023/12/24 02:05:21;;;;;;;4.72;4.10;;;;;;;;;;1031651;28;20026;-73
2023/12/24 02:05:52;;;;;;;3.83;1.42;;;;;;;;;;1031588;28;20076;-73
2023/12/24 02:06:24;;;;;;;4.13;2.60;;;;;;;;;;1029916;28;20110;-73
2023/12/24 02:06:55;;;;;;;3.05;2.40;;;;;;;;;;1029718;28;20033;-73
2023/12/24 02:07:26;;;;;;;6.95;3.88;;;;;;;;;;1031457;28;20031;-73
2023/12/24 02:07:56;;;;;;;1.17;1.15;;;;;;;;;;1031533;28;20022;-73
2023/12/24 02:08:27;;;;;;;5.68;4.00;;;;;;;;;;1031545;28;20646;-73
2023/12/24 02:08:57;;;;;;;3.95;3.65;;;;;;;;;;1031770;28;20061;-73
2023/12/24 02:09:28;;;;;;;6.00;1.95;;;;;;;;;;1031614;28;20030;-73
2023/12/24 02:09:58;;;;;;;1.48;1.38;;;;;;;;;;1031664;28;20069;-73
2023/12/24 02:10:32;;;;;;;1.98;1.88;;;;;;;;;;1031638;28;20438;-73
2023/12/24 02:11:03;;;;;;;6.50;2.55;;;;;;;;;;1031154;28;20037;-73
2023/12/24 02:11:33;;;;;;;2.67;2.47;;;;;;;;;;1031702;28;20030;-73
2023/12/24 02:12:04;;;;;;;1.77;1.73;;;;;;;;;;1031416;28;20081;-73
2023/12/24 02:12:34;;;;;;;10.25;5.50;;;;;;;;;;1031457;28;20121;-73
2023/12/24 02:13:05;;;;;;;8.95;3.75;;;;;;;;;;1030781;28;20077;-73
2023/12/24 02:13:35;;;;;;;4.20;2.40;;;;;;;;;;1026832;28;20038;-73
2023/12/24 02:14:06;;;;;;;1.75;1.50;;;;;;;;;;1031017;28;20046;-73
2023/12/24 02:14:36;;;;;;;2.63;2.33;;;;;;;;;;1030957;28;20046;-73
2023/12/24 02:15:07;;;;;;;1.85;1.67;;;;;;;;;;1031354;28;20033;-73
2023/12/24 02:15:38;;;;;;;3.60;2.38;;;;;;;;;;1035318;28;20049;-73
2023/12/24 02:16:10;;;;;;;2.78;1.85;;;;;;;;;;1033176;28;20021;-73
2023/12/24 02:16:41;;;;;;;2.40;2.30;;;;;;;;;;1031782;28;20029;-73
2023/12/24 02:17:12;;;;;;;4.93;1.73;;;;;;;;;;1031709;28;20022;-73
2023/12/24 02:17:43;;;;;;;3.70;2.58;;;;;;;;;;1031784;28;20443;-73
2023/12/24 02:18:13;;;;;;;5.50;2.08;;;;;;;;;;1031705;28;20030;-73
2023/12/24 02:18:44;;;;;;;2.85;2.17;;;;;;;;;;1031703;28;20537;-73
2023/12/24 02:19:17;;;;;;;7.50;2.72;;;;;;;;;;1030852;28;20497;-73
2023/12/24 02:19:47;;;;;;;2.70;1.75;;;;;;;;;;1030658;28;20041;-73
2023/12/24 02:20:18;;;;;;;3.00;2.80;;;;;;;;;;1027222;28;20022;-73
2023/12/24 02:20:51;;;;;;;2.40;1.40;;;;;;;;;;1027216;28;20038;-73
2023/12/24 02:21:22;;;;;;;9.52;1.05;;;;;;;;;;1027453;28;20114;-73
2023/12/24 02:21:52;;;;;;;4.20;3.65;;;;;;;;;;1031417;28;20423;-73
2023/12/24 02:22:23;;;;;;;3.95;2.53;;;;;;;;;;1030182;28;20549;-73
2023/12/24 02:22:54;;;;;;;14.93;4.18;;;;;;;;;;1031345;28;20026;-73
2023/12/24 02:23:24;;;;;;;6.78;5.18;;;;;;;;;;1031405;28;20402;-73
2023/12/24 02:23:54;;;;;;;3.22;2.88;;;;;;;;;;1031384;28;20030;-73
2023/12/24 02:24:25;;;;;;;12.85;5.25;;;;;;;;;;1031813;28;20426;-73
2023/12/24 02:24:58;;;;;;;7.28;4.03;;;;;;;;;;1031511;28;20398;-73
2023/12/24 02:25:29;;;;;;;8.60;5.50;;;;;;;;;;1031420;28;20474;-73
2023/12/24 02:26:18;;;;;;;11.98;3.40;;;;;;;;;;1030510;28;20022;-73
2023/12/24 02:27:03;;;;;;;7.25;4.65;;;;;;;;;;1031664;28;20397;-73
2023/12/24 02:27:45;;;;;;;9.40;6.45;;;;;;;;;;1031125;28;20625;-73
2023/12/24 02:28:16;;;;;;;8.27;3.55;;;;;;;;;;1030399;28;20105;-73
2023/12/24 02:28:49;;;;;;;0.85;0.82;;;;;;;;;;1030277;28;20022;-73
2023/12/24 02:29:24;;;;;;;3.08;2.17;;;;;;;;;;1031428;28;20030;-73
2023/12/24 02:29:57;;;;;;;12.73;4.28;;;;;;;;;;1031652;28;20399;-73
2023/12/24 02:30:32;;;;;;;2.50;2.30;;;;;;;;;;1031185;28;20093;-73
2023/12/24 02:31:06;;;;;;;1.23;1.13;;;;;;;;;;1030298;28;20040;-73
2023/12/24 02:31:38;;;;;;;12.27;3.92;;;;;;;;;;1030977;28;20038;-73
2023/12/24 02:32:15;;;;;;;5.70;2.58;;;;;;;;;;1029716;28;20018;-73
2023/12/24 02:32:49;;;;;;;2.80;2.70;;;;;;;;;;1031709;28;20486;-73
2023/12/24 02:33:20;;;;;;;2.90;2.65;;;;;;;;;;1031283;28;20113;-73
2023/12/24 02:33:52;;;;;;;7.38;5.03;;;;;;;;;;1031710;28;20030;-73
2023/12/24 02:34:22;;;;;;;5.47;4.13;;;;;;;;;;1033204;28;20104;-73
2023/12/24 02:34:53;;;;;;;2.00;1.90;;;;;;;;;;1033176;28;20425;-73
2023/12/24 02:35:25;;;;;;;3.80;2.22;;;;;;;;;;1033229;28;20033;-72
2023/12/24 02:35:58;;;;;;;6.63;3.35;;;;;;;;;;1034957;28;20105;-72
2023/12/24 02:36:32;;;;;;;2.10;1.92;;;;;;;;;;1031199;28;20030;-72
2023/12/24 02:37:03;;;;;;;2.92;2.58;;;;;;;;;;1031272;28;20475;-72
2023/12/24 02:37:34;;;;;;;2.03;1.92;;;;;;;;;;1031578;28;20022;-72
2023/12/24 02:38:05;;;;;;;5.65;2.45;;;;;;;;;;1031619;28;20434;-72
2023/12/24 02:38:35;;;;;;;6.15;2.95;;;;;;;;;;1031173;28;20030;-72
2023/12/24 02:39:06;;;;;;;2.65;2.45;;;;;;;;;;1031407;28;20038;-72
2023/12/24 02:39:41;;;;;;;24.00;6.07;;;;;;;;;;1031500;28;20030;-73
2023/12/24 02:40:12;;;;;;;2.15;2.05;;;;;;;;;;1030138;28;20022;-73
2023/12/24 02:40:42;;;;;;;8.13;2.92;;;;;;;;;;1031106;28;20061;-73
2023/12/24 02:41:12;;;;;;;7.50;3.03;;;;;;;;;;1031227;28;20026;-73
2023/12/24 02:41:43;;;;;;;7.55;3.17;;;;;;;;;;1031340;28;20165;-73
2023/12/24 02:42:13;;;;;;;9.23;4.63;;;;;;;;;;1031196;28;20026;-73
2023/12/24 02:42:44;;;;;;;6.85;3.40;;;;;;;;;;1031344;28;20033;-73
2023/12/24 02:43:14;;;;;;;17.00;7.25;;;;;;;;;;1027213;28;20062;-73
2023/12/24 02:43:45;;;;;;;6.72;5.30;;;;;;;;;;1027358;28;20027;-73
2023/12/24 02:44:15;;;;;;;15.25;5.47;;;;;;;;;;1031302;28;20061;-73
2023/12/24 02:44:46;;;;;;;10.60;5.60;;;;;;;;;;1030736;28;20026;-73
2023/12/24 02:45:19;;;;;;;12.65;5.13;;;;;;;;;;1026189;28;20113;-73
2023/12/24 02:45:49;;;;;;;9.70;5.50;;;;;;;;;;1030987;28;20038;-73
2023/12/24 02:46:20;;;;;;;12.18;7.25;;;;;;;;;;1031310;28;20073;-73
2023/12/24 02:46:50;;;;;;;9.40;5.22;;;;;;;;;;1031484;28;20116;-73
2023/12/24 02:47:20;;;;;;;16.13;5.72;;;;;;;;;;1035041;28;20429;-73
2023/12/24 02:47:51;;;;;;;13.73;6.10;;;;;;;;;;1035544;28;20490;-73
2023/12/24 02:48:21;;;;;;;24.20;8.38;;;;;;;;;;1035409;28;20064;-73
2023/12/24 02:48:52;;;;;;;18.60;8.27;;;;;;;;;;1030117;28;20018;-73
2023/12/24 02:49:22;;;;;;;23.25;9.05;;;;;;;;;;1030991;28;20029;-73
2023/12/24 02:49:52;;;;;;;23.52;11.02;;;;;;;;;;1031090;28;20022;-73
2023/12/24 02:50:23;;;;;;;30.02;12.35;;;;;;;;;;1029552;28;20019;-73
2023/12/24 02:50:53;;;;;;;22.77;9.95;;;;;;;;;;1030272;28;20026;-73
2023/12/24 02:51:24;;;;;;;33.67;10.95;;;;;;;;;;1031060;28;20026;-73
2023/12/24 02:51:54;;;;;;;28.35;11.70;;;;;;;;;;1031661;28;20948;-73
2023/12/24 02:52:25;;;;;;;25.80;10.25;;;;;;;;;;1031251;28;20026;-73
2023/12/24 02:52:55;;;;;;;38.22;14.48;;;;;;;;;;1031218;28;20430;-73
2023/12/24 02:53:25;;;;;;;22.75;7.80;;;;;;;;;;1030622;28;20445;-73
2023/12/24 02:53:56;;;;;;;16.60;8.07;;;;;;;;;;1031374;28;20499;-73
2023/12/24 02:54:26;;;;;;;25.35;10.52;;;;;;;;;;1035345;28;20060;-73
2023/12/24 02:54:57;;;;;;;49.30;14.52;;;;;;;;;;1030964;28;20034;-73
2023/12/24 02:55:27;;;;;;;22.00;11.18;;;;;;;;;;1031020;28;20116;-73
2023/12/24 02:55:59;;;;;;;22.55;11.43;;;;;;;;;;1031357;28;20018;-73
2023/12/24 02:56:36;;;;;;;13.40;12.00;;;;;;;;;;1031298;28;20430;-73
2023/12/24 02:57:06;;;;;;;22.27;9.75;;;;;;;;;;1031580;28;20033;-73
2023/12/24 02:57:37;;;;;;;28.75;8.00;;;;;;;;;;1031346;28;20026;-73
2023/12/24 02:58:07;;;;;;;18.70;10.60;;;;;;;;;;1028845;28;20482;-73
2023/12/24 02:58:49;;;;;;;13.18;9.15;;;;;;;;;;1029104;28;20105;-73
2023/12/24 02:59:20;;;;;;;11.65;7.03;;;;;;;;;;1031183;28;20387;-73
2023/12/24 02:59:50;;;;;;;10.73;8.85;;;;;;;;;;1031400;28;20026;-73
2023/12/24 03:00:21;;;;;;;5.55;4.82;;;;;;;;;;1031484;28;20052;-73
2023/12/24 03:00:51;;;;;;;15.73;5.10;;;;;;;;;;1031355;28;20484;-73
2023/12/24 03:01:25;;;;;;;10.25;5.32;;;;;;;;;;1031657;28;20022;-73
2023/12/24 03:01:55;;;;;;;35.95;7.13;;;;;;;;;;1030647;28;20605;-73
2023/12/24 03:02:26;;;;;;;10.13;5.78;;;;;;;;;;1031317;28;20026;-73
2023/12/24 03:02:56;;;;;;;4.60;4.15;;;;;;;;;;1031279;28;20022;-73
2023/12/24 03:03:30;;;;;;;4.22;3.35;;;;;;;;;;1031233;28;20109;-73
2023/12/24 03:04:02;;;;;;;4.10;3.22;;;;;;;;;;1031735;28;20120;-73
2023/12/24 03:04:32;;;;;;;11.30;5.07;;;;;;;;;;1030844;28;20891;-73
2023/12/24 03:05:03;;;;;;;6.60;5.25;;;;;;;;;;1031473;28;20014;-73